Roy Michael — WD13791 — position and weather

sailwx.info

Track history (hours):
 
Tides and Currents Weather Stations Pressure Air Temp Water Temp Dewpoint Dewpoint Depression Visibility Wind Speed Wind Dir Waves Ship Positions

Roy Michael

Last reported at 2017-Nov-06 02:30 UTC. Time now 2017-Nov-17 19:28 UTC.
Position N 29°47' W 092°13'.
Warning: this ship's position is 11 days out of date.

Length 206 m; draft 3 m.

Type: Tug. MMSI: 367691950.

Date/timePositionNaut miles runAvg speedWind from/ knotsBaromVisibWave heightAir tempDewpointWater temp
2017-Nov-06 02:30N 29°47' W 092°13'1 1.5
2017-Nov-06 02:00N 29°48' W 092°14'1 2.4
2017-Nov-06 01:30N 29°48' W 092°15'1 2.0
2017-Nov-06 01:00N 29°49' W 092°16'2 3.9
2017-Nov-06 00:30N 29°50' W 092°18'2 3.4
2017-Nov-06 00:00N 29°50' W 092°20'39 4.6
2017-Nov-05 15:30N 29°56' W 093°04'2 4.4
2017-Nov-05 14:57N 29°56' W 093°07'2 3.2
2017-Nov-05 14:20N 29°56' W 093°09'1 4.4
2017-Nov-05 14:00N 29°57' W 093°10'2 4.8
2017-Nov-05 13:30N 29°59' W 093°12'2 4.5
2017-Nov-05 13:00N 30°00' W 093°14'2 4.0
2017-Nov-05 12:30N 30°02' W 093°15'2 3.4
2017-Nov-05 12:00N 30°04' W 093°16'2 4.1
2017-Nov-05 11:30N 30°05' W 093°17'1 1.3
2017-Nov-05 11:00N 30°06' W 093°18'1 2.1
2017-Nov-05 10:30N 30°06' W 093°19'0 0.0
2017-Nov-05 10:00N 30°06' W 093°19'0 0.0
2017-Nov-05 09:30N 30°06' W 093°19'0 0.0
2017-Nov-05 09:00N 30°06' W 093°19'0 0.0
2017-Nov-05 08:30N 30°06' W 093°19'0 0.1
2017-Nov-05 08:00N 30°06' W 093°19'0 0.0
2017-Nov-05 07:30N 30°06' W 093°19'0 0.0
2017-Nov-05 07:00N 30°06' W 093°19'0 0.0
2017-Nov-05 06:30N 30°06' W 093°19'0 0.0
2017-Nov-05 06:00N 30°06' W 093°19'0 0.0
2017-Nov-05 05:30N 30°06' W 093°19'0 0.0
2017-Nov-05 05:00N 30°06' W 093°19'0 0.0
2017-Nov-05 04:30N 30°06' W 093°19'0 0.0
2017-Nov-05 04:00N 30°06' W 093°19'0 0.0
2017-Nov-05 03:30N 30°06' W 093°19'2 3.0
2017-Nov-05 03:00N 30°05' W 093°20'2 3.8
2017-Nov-05 02:30N 30°04' W 093°22'2 4.3
2017-Nov-05 02:00N 30°04' W 093°24'2 4.7
2017-Nov-05 01:30N 30°04' W 093°27'2 5.0
2017-Nov-05 01:00N 30°04' W 093°30'2 5.0
2017-Nov-05 00:30N 30°04' W 093°33'3 5.0
2017-Nov-05 00:00N 30°04' W 093°36'3 5.4
2017-Nov-04 23:30N 30°04' W 093°39'3 5.1
2017-Nov-04 22:54N 30°03' W 093°43'69 3.5
2017-Nov-04 03:18N 29°29' W 094°52'2 7.2
2017-Nov-04 03:00N 29°31' W 094°53'4 7.1
2017-Nov-04 02:30N 29°34' W 094°55'4 7.2
2017-Nov-04 02:00N 29°37' W 094°57'4 7.5
2017-Nov-04 01:30N 29°40' W 094°59'3 6.6
2017-Nov-04 00:59N 29°43' W 095°01'4 5.8
2017-Nov-04 00:20N 29°46' W 095°04'3 4.6
2017-Nov-03 23:47N 29°44' W 095°07'2 6.5
2017-Nov-03 23:30N 29°44' W 095°09'3 5.3
2017-Nov-03 23:00N 29°45' W 095°12'0 0.0
2017-Nov-03 22:30N 29°45' W 095°12'0 0.2
2017-Nov-03 22:00N 29°45' W 095°12'0 0.2
2017-Nov-03 21:30N 29°45' W 095°12'0 0.1
2017-Nov-03 20:45N 29°45' W 095°12'0 0.0
2017-Nov-02 12:26N 29°45' W 095°12'0 0.0
2017-Nov-02 11:52N 29°45' W 095°12'0 0.0
2017-Nov-02 11:30N 29°45' W 095°12'0 0.0
2017-Nov-02 10:55N 29°45' W 095°12'0 0.0
2017-Nov-02 07:47N 29°45' W 095°12'0 0.0
2017-Nov-02 07:29N 29°45' W 095°12'0 0.0
2017-Nov-02 06:53N 29°45' W 095°12'0 0.0
2017-Nov-02 06:26N 29°45' W 095°12'0 0.0
2017-Nov-02 05:56N 29°45' W 095°12'0 0.0
2017-Nov-02 05:30N 29°45' W 095°12'0 0.0
2017-Nov-02 04:18N 29°45' W 095°12'0 0.0
2017-Nov-02 03:59N 29°45' W 095°12'0 0.1
2017-Nov-02 03:30N 29°45' W 095°12'1 2.3
2017-Nov-02 02:59N 29°45' W 095°10'3 4.6
2017-Nov-02 02:22N 29°44' W 095°07'2 5.7
2017-Nov-02 02:00N 29°46' W 095°05'0 0.1
2017-Nov-02 01:01N 29°46' W 095°06'0 3.1
2017-Nov-02 01:00N 29°45' W 095°06'0 0.1
2017-Nov-02 00:30N 29°45' W 095°06'0 0.1
2017-Nov-01 23:58N 29°45' W 095°06'0 0.1
2017-Nov-01 23:30N 29°45' W 095°06'0 0.0
2017-Nov-01 22:59N 29°45' W 095°06'0 0.0
2017-Nov-01 21:08N 29°45' W 095°06'0 0.1
2017-Nov-01 18:41N 29°46' W 095°05'0 0.9
2017-Nov-01 18:20N 29°46' W 095°06'0 0.0
2017-Nov-01 01:22N 29°46' W 095°05'1 1.4
2017-Nov-01 00:59N 29°45' W 095°06'0 0.5
2017-Nov-01 00:03N 29°46' W 095°06'0 4.5
2017-Oct-31 23:59N 29°46' W 095°05'0 0.1
2017-Oct-31 19:11N 29°46' W 095°05'1 0.2
2017-Oct-31 15:26N 29°45' W 095°06'2 3.2
2017-Oct-31 14:40N 29°44' W 095°08'2 6.1
2017-Oct-31 14:22N 29°45' W 095°10'0 0.9
2017-Oct-31 14:00N 29°45' W 095°10'0 0.2
2017-Oct-31 13:30N 29°45' W 095°10'0 0.0
2017-Oct-31 13:00N 29°45' W 095°10'0 0.2
2017-Oct-31 12:28N 29°45' W 095°10'0 0.0
2017-Oct-31 12:00N 29°45' W 095°10'0 0.6
2017-Oct-31 11:28N 29°45' W 095°10'3 6.1
2017-Oct-31 10:58N 29°45' W 095°07'3 0.3
2017-Oct-31 02:17N 29°47' W 095°04'1 0.6
2017-Oct-31 00:07N 29°46' W 095°05'1 4.9
2017-Oct-30 23:58N 29°46' W 095°05'1 3.1
2017-Oct-30 23:30N 29°48' W 095°04'1 1.0
2017-Oct-30 21:59N 29°46' W 095°05'1 0.4
2017-Oct-30 19:02N 29°46' W 095°06'0 0.0
2017-Oct-30 18:57N 29°46' W 095°06'1 0.2
2017-Oct-30 16:02N 29°45' W 095°06'1 1.1
2017-Oct-30 15:35N 29°46' W 095°05'0 0.5
2017-Oct-30 15:29N 29°46' W 095°05'1 1.1
2017-Oct-30 14:56N 29°46' W 095°05'0 0.3
2017-Oct-30 13:55N 29°46' W 095°04'0 0.0
2017-Oct-30 13:30N 29°46' W 095°04'0 0.0
2017-Oct-30 12:57N 29°46' W 095°04'0 0.0
2017-Oct-30 12:29N 29°46' W 095°04'2 3.4
2017-Oct-30 12:00N 29°45' W 095°06'0 0.2
2017-Oct-30 11:30N 29°45' W 095°06'0 0.0
2017-Oct-30 10:59N 29°45' W 095°06'0 0.0
2017-Oct-30 10:30N 29°45' W 095°06'0 0.0
2017-Oct-30 10:00N 29°45' W 095°06'0 0.0
2017-Oct-30 09:30N 29°45' W 095°06'0 0.0
2017-Oct-30 09:00N 29°45' W 095°06'0 0.0
2017-Oct-30 08:23N 29°45' W 095°06'0 0.0
2017-Oct-30 07:57N 29°45' W 095°06'0 0.0
2017-Oct-30 07:30N 29°45' W 095°06'0 0.0
2017-Oct-30 07:00N 29°45' W 095°06'0 0.0
2017-Oct-30 06:30N 29°45' W 095°06'0 0.0
2017-Oct-30 06:00N 29°45' W 095°06'0 0.0
2017-Oct-30 05:30N 29°45' W 095°06'0 0.0
2017-Oct-30 05:00N 29°45' W 095°06'0 0.0
2017-Oct-30 04:29N 29°45' W 095°06'0 0.0
2017-Oct-30 04:00N 29°45' W 095°06'0 0.0
2017-Oct-30 03:30N 29°45' W 095°06'0 0.0
2017-Oct-30 03:00N 29°45' W 095°06'0 0.0
2017-Oct-30 02:30N 29°45' W 095°06'1 1.1
2017-Oct-30 02:00N 29°46' W 095°06'0 0.0
2017-Oct-30 00:27N 29°45' W 095°06'2 0.2
2017-Oct-29 16:18N 29°47' W 095°04'0 0.3
2017-Oct-29 15:46N 29°47' W 095°04'1 4.0
2017-Oct-29 15:31N 29°46' W 095°05'3 6.8
2017-Oct-29 15:00N 29°44' W 095°08'1 1.9
2017-Oct-29 14:30N 29°44' W 095°09'0 0.0
2017-Oct-29 14:00N 29°44' W 095°09'0 0.0
2017-Oct-29 13:26N 29°44' W 095°09'0 0.0
2017-Oct-29 12:51N 29°44' W 095°09'0 0.0
2017-Oct-29 12:21N 29°44' W 095°09'0 0.0
2017-Oct-29 11:59N 29°44' W 095°09'0 0.0
2017-Oct-29 11:30N 29°44' W 095°09'0 0.0
2017-Oct-29 10:47N 29°44' W 095°09'0 0.0
2017-Oct-29 10:30N 29°44' W 095°09'0 0.0
2017-Oct-29 10:00N 29°44' W 095°09'0 0.0
2017-Oct-29 09:23N 29°44' W 095°09'0 0.0
2017-Oct-29 09:00N 29°44' W 095°09'0 0.0
2017-Oct-29 08:30N 29°44' W 095°09'0 0.0
2017-Oct-29 07:53N 29°44' W 095°09'0 0.0
2017-Oct-29 07:29N 29°44' W 095°09'0 0.0
2017-Oct-29 06:47N 29°44' W 095°09'0 0.0
2017-Oct-29 06:27N 29°44' W 095°09'0 0.0
2017-Oct-29 05:57N 29°44' W 095°09'0 0.0
2017-Oct-29 05:30N 29°44' W 095°09'0 0.0
2017-Oct-29 04:58N 29°44' W 095°09'0 0.0
2017-Oct-29 04:28N 29°44' W 095°09'0 0.0
2017-Oct-29 04:00N 29°44' W 095°09'  
Track history (hours):
 
Tides and Currents Weather Stations Pressure Air Temp Water Temp Dewpoint Dewpoint Depression Visibility Wind Speed Wind Dir Waves Ship Positions

Roy Michael

Last reported at 2017-Nov-06 02:30 UTC. Time now 2017-Nov-17 19:28 UTC.
Position N 29°47' W 092°13'.
Warning: this ship's position is 11 days out of date.

Length 206 m; draft 3 m.

Type: Tug. MMSI: 367691950.

Date/timePositionNaut miles runAvg speedWind from/ knotsBaromVisibWave heightAir tempDewpointWater temp
2017-Nov-06 02:30N 29°47' W 092°13'1 1.5
2017-Nov-06 02:00N 29°48' W 092°14'1 2.4
2017-Nov-06 01:30N 29°48' W 092°15'1 2.0
2017-Nov-06 01:00N 29°49' W 092°16'2 3.9
2017-Nov-06 00:30N 29°50' W 092°18'2 3.4
2017-Nov-06 00:00N 29°50' W 092°20'39 4.6
2017-Nov-05 15:30N 29°56' W 093°04'2 4.4
2017-Nov-05 14:57N 29°56' W 093°07'2 3.2
2017-Nov-05 14:20N 29°56' W 093°09'1 4.4
2017-Nov-05 14:00N 29°57' W 093°10'2 4.8
2017-Nov-05 13:30N 29°59' W 093°12'2 4.5
2017-Nov-05 13:00N 30°00' W 093°14'2 4.0
2017-Nov-05 12:30N 30°02' W 093°15'2 3.4
2017-Nov-05 12:00N 30°04' W 093°16'2 4.1
2017-Nov-05 11:30N 30°05' W 093°17'1 1.3
2017-Nov-05 11:00N 30°06' W 093°18'1 2.1
2017-Nov-05 10:30N 30°06' W 093°19'0 0.0
2017-Nov-05 10:00N 30°06' W 093°19'0 0.0
2017-Nov-05 09:30N 30°06' W 093°19'0 0.0
2017-Nov-05 09:00N 30°06' W 093°19'0 0.0
2017-Nov-05 08:30N 30°06' W 093°19'0 0.1
2017-Nov-05 08:00N 30°06' W 093°19'0 0.0
2017-Nov-05 07:30N 30°06' W 093°19'0 0.0
2017-Nov-05 07:00N 30°06' W 093°19'0 0.0
2017-Nov-05 06:30N 30°06' W 093°19'0 0.0
2017-Nov-05 06:00N 30°06' W 093°19'0 0.0
2017-Nov-05 05:30N 30°06' W 093°19'0 0.0
2017-Nov-05 05:00N 30°06' W 093°19'0 0.0
2017-Nov-05 04:30N 30°06' W 093°19'0 0.0
2017-Nov-05 04:00N 30°06' W 093°19'0 0.0
2017-Nov-05 03:30N 30°06' W 093°19'2 3.0
2017-Nov-05 03:00N 30°05' W 093°20'2 3.8
2017-Nov-05 02:30N 30°04' W 093°22'2 4.3
2017-Nov-05 02:00N 30°04' W 093°24'2 4.7
2017-Nov-05 01:30N 30°04' W 093°27'2 5.0
2017-Nov-05 01:00N 30°04' W 093°30'2 5.0
2017-Nov-05 00:30N 30°04' W 093°33'3 5.0
2017-Nov-05 00:00N 30°04' W 093°36'3 5.4
2017-Nov-04 23:30N 30°04' W 093°39'3 5.1
2017-Nov-04 22:54N 30°03' W 093°43'69 3.5
2017-Nov-04 03:18N 29°29' W 094°52'2 7.2
2017-Nov-04 03:00N 29°31' W 094°53'4 7.1
2017-Nov-04 02:30N 29°34' W 094°55'4 7.2
2017-Nov-04 02:00N 29°37' W 094°57'4 7.5
2017-Nov-04 01:30N 29°40' W 094°59'3 6.6
2017-Nov-04 00:59N 29°43' W 095°01'4 5.8
2017-Nov-04 00:20N 29°46' W 095°04'3 4.6
2017-Nov-03 23:47N 29°44' W 095°07'2 6.5
2017-Nov-03 23:30N 29°44' W 095°09'3 5.3
2017-Nov-03 23:00N 29°45' W 095°12'0 0.0
2017-Nov-03 22:30N 29°45' W 095°12'0 0.2
2017-Nov-03 22:00N 29°45' W 095°12'0 0.2
2017-Nov-03 21:30N 29°45' W 095°12'0 0.1
2017-Nov-03 20:45N 29°45' W 095°12'0 0.0
2017-Nov-02 12:26N 29°45' W 095°12'0 0.0
2017-Nov-02 11:52N 29°45' W 095°12'0 0.0
2017-Nov-02 11:30N 29°45' W 095°12'0 0.0
2017-Nov-02 10:55N 29°45' W 095°12'0 0.0
2017-Nov-02 07:47N 29°45' W 095°12'0 0.0
2017-Nov-02 07:29N 29°45' W 095°12'0 0.0
2017-Nov-02 06:53N 29°45' W 095°12'0 0.0
2017-Nov-02 06:26N 29°45' W 095°12'0 0.0
2017-Nov-02 05:56N 29°45' W 095°12'0 0.0
2017-Nov-02 05:30N 29°45' W 095°12'0 0.0
2017-Nov-02 04:18N 29°45' W 095°12'0 0.0
2017-Nov-02 03:59N 29°45' W 095°12'0 0.1
2017-Nov-02 03:30N 29°45' W 095°12'1 2.3
2017-Nov-02 02:59N 29°45' W 095°10'3 4.6
2017-Nov-02 02:22N 29°44' W 095°07'2 5.7
2017-Nov-02 02:00N 29°46' W 095°05'0 0.1
2017-Nov-02 01:01N 29°46' W 095°06'0 3.1
2017-Nov-02 01:00N 29°45' W 095°06'0 0.1
2017-Nov-02 00:30N 29°45' W 095°06'0 0.1
2017-Nov-01 23:58N 29°45' W 095°06'0 0.1
2017-Nov-01 23:30N 29°45' W 095°06'0 0.0
2017-Nov-01 22:59N 29°45' W 095°06'0 0.0
2017-Nov-01 21:08N 29°45' W 095°06'0 0.1
2017-Nov-01 18:41N 29°46' W 095°05'0 0.9
2017-Nov-01 18:20N 29°46' W 095°06'0 0.0
2017-Nov-01 01:22N 29°46' W 095°05'1 1.4
2017-Nov-01 00:59N 29°45' W 095°06'0 0.5
2017-Nov-01 00:03N 29°46' W 095°06'0 4.5
2017-Oct-31 23:59N 29°46' W 095°05'0 0.1
2017-Oct-31 19:11N 29°46' W 095°05'1 0.2
2017-Oct-31 15:26N 29°45' W 095°06'2 3.2
2017-Oct-31 14:40N 29°44' W 095°08'2 6.1
2017-Oct-31 14:22N 29°45' W 095°10'0 0.9
2017-Oct-31 14:00N 29°45' W 095°10'0 0.2
2017-Oct-31 13:30N 29°45' W 095°10'0 0.0
2017-Oct-31 13:00N 29°45' W 095°10'0 0.2
2017-Oct-31 12:28N 29°45' W 095°10'0 0.0
2017-Oct-31 12:00N 29°45' W 095°10'0 0.6
2017-Oct-31 11:28N 29°45' W 095°10'3 6.1
2017-Oct-31 10:58N 29°45' W 095°07'3 0.3
2017-Oct-31 02:17N 29°47' W 095°04'1 0.6
2017-Oct-31 00:07N 29°46' W 095°05'1 4.9
2017-Oct-30 23:58N 29°46' W 095°05'1 3.1
2017-Oct-30 23:30N 29°48' W 095°04'1 1.0
2017-Oct-30 21:59N 29°46' W 095°05'1 0.4
2017-Oct-30 19:02N 29°46' W 095°06'0 0.0
2017-Oct-30 18:57N 29°46' W 095°06'1 0.2
2017-Oct-30 16:02N 29°45' W 095°06'1 1.1
2017-Oct-30 15:35N 29°46' W 095°05'0 0.5
2017-Oct-30 15:29N 29°46' W 095°05'1 1.1
2017-Oct-30 14:56N 29°46' W 095°05'0 0.3
2017-Oct-30 13:55N 29°46' W 095°04'0 0.0
2017-Oct-30 13:30N 29°46' W 095°04'0 0.0
2017-Oct-30 12:57N 29°46' W 095°04'0 0.0
2017-Oct-30 12:29N 29°46' W 095°04'2 3.4
2017-Oct-30 12:00N 29°45' W 095°06'0 0.2
2017-Oct-30 11:30N 29°45' W 095°06'0 0.0
2017-Oct-30 10:59N 29°45' W 095°06'0 0.0
2017-Oct-30 10:30N 29°45' W 095°06'0 0.0
2017-Oct-30 10:00N 29°45' W 095°06'0 0.0
2017-Oct-30 09:30N 29°45' W 095°06'0 0.0
2017-Oct-30 09:00N 29°45' W 095°06'0 0.0
2017-Oct-30 08:23N 29°45' W 095°06'0 0.0
2017-Oct-30 07:57N 29°45' W 095°06'0 0.0
2017-Oct-30 07:30N 29°45' W 095°06'0 0.0
2017-Oct-30 07:00N 29°45' W 095°06'0 0.0
2017-Oct-30 06:30N 29°45' W 095°06'0 0.0
2017-Oct-30 06:00N 29°45' W 095°06'0 0.0
2017-Oct-30 05:30N 29°45' W 095°06'0 0.0
2017-Oct-30 05:00N 29°45' W 095°06'0 0.0
2017-Oct-30 04:29N 29°45' W 095°06'0 0.0
2017-Oct-30 04:00N 29°45' W 095°06'0 0.0
2017-Oct-30 03:30N 29°45' W 095°06'0 0.0
2017-Oct-30 03:00N 29°45' W 095°06'0 0.0
2017-Oct-30 02:30N 29°45' W 095°06'1 1.1
2017-Oct-30 02:00N 29°46' W 095°06'0 0.0
2017-Oct-30 00:27N 29°45' W 095°06'2 0.2
2017-Oct-29 16:18N 29°47' W 095°04'0 0.3
2017-Oct-29 15:46N 29°47' W 095°04'1 4.0
2017-Oct-29 15:31N 29°46' W 095°05'3 6.8
2017-Oct-29 15:00N 29°44' W 095°08'1 1.9
2017-Oct-29 14:30N 29°44' W 095°09'0 0.0
2017-Oct-29 14:00N 29°44' W 095°09'0 0.0
2017-Oct-29 13:26N 29°44' W 095°09'0 0.0
2017-Oct-29 12:51N 29°44' W 095°09'0 0.0
2017-Oct-29 12:21N 29°44' W 095°09'0 0.0
2017-Oct-29 11:59N 29°44' W 095°09'0 0.0
2017-Oct-29 11:30N 29°44' W 095°09'0 0.0
2017-Oct-29 10:47N 29°44' W 095°09'0 0.0
2017-Oct-29 10:30N 29°44' W 095°09'0 0.0
2017-Oct-29 10:00N 29°44' W 095°09'0 0.0
2017-Oct-29 09:23N 29°44' W 095°09'0 0.0
2017-Oct-29 09:00N 29°44' W 095°09'0 0.0
2017-Oct-29 08:30N 29°44' W 095°09'0 0.0
2017-Oct-29 07:53N 29°44' W 095°09'0 0.0
2017-Oct-29 07:29N 29°44' W 095°09'0 0.0
2017-Oct-29 06:47N 29°44' W 095°09'0 0.0
2017-Oct-29 06:27N 29°44' W 095°09'0 0.0
2017-Oct-29 05:57N 29°44' W 095°09'0 0.0
2017-Oct-29 05:30N 29°44' W 095°09'0 0.0
2017-Oct-29 04:58N 29°44' W 095°09'0 0.0
2017-Oct-29 04:28N 29°44' W 095°09'0 0.0
2017-Oct-29 04:00N 29°44' W 095°09'  

Dump ship's entire track history